Time;durP1;ratioP1;P1;durP2;ratioP2;P2;SDS_P1;SDS_P2;PMS_P1;PMS_P2;Temp;Humidity;BMP_temperature;BMP_pressure;BME280_temperature;BME280_humidity;BME280_pressure;Samples;Min_cycle;Max_cycle;Signal;HPM_P1;HPM_P2
2023/05/24 00:00:11;;;;;;;3.50;3.20;;;15.30;99.90;;;;;;4943668;29;20181;-84
2023/05/24 00:02:40;;;;;;;4.50;3.90;;;15.10;99.90;;;;;;4960039;29;20209;-84
2023/05/24 00:05:08;;;;;;;5.47;4.15;;;15.20;99.90;;;;;;4940126;29;20191;-84
2023/05/24 00:07:34;;;;;;;4.78;3.65;;;15.00;99.90;;;;;;4938678;29;20177;-84
2023/05/24 00:09:59;;;;;;;5.20;4.10;;;15.50;99.90;;;;;;4950714;29;20232;-84
2023/05/24 00:12:25;;;;;;;5.60;4.83;;;15.20;99.90;;;;;;4952396;28;20213;-84
2023/05/24 00:14:51;;;;;;;6.07;3.60;;;15.40;99.90;;;;;;4951952;29;20181;-84
2023/05/24 00:17:16;;;;;;;3.93;3.53;;;15.10;99.90;;;;;;4953398;29;20547;-84
2023/05/24 00:19:42;;;;;;;4.20;3.80;;;15.10;99.90;;;;;;4958471;29;20200;-84
2023/05/24 00:22:07;;;;;;;4.60;4.13;;;15.50;99.90;;;;;;4957234;29;20197;-84
2023/05/24 00:24:33;;;;;;;4.70;3.87;;;15.20;99.90;;;;;;4969591;28;20192;-84
2023/05/24 00:26:58;;;;;;;4.60;4.20;;;15.20;99.90;;;;;;4951431;29;20559;-84
2023/05/24 00:29:24;;;;;;;4.20;3.80;;;15.40;99.90;;;;;;4967438;28;20207;-84
2023/05/24 00:31:49;;;;;;;5.27;4.77;;;15.40;99.90;;;;;;4953853;29;20231;-84
2023/05/24 00:34:15;;;;;;;4.57;4.17;;;15.40;99.90;;;;;;4951899;28;20198;-84
2023/05/24 00:36:40;;;;;;;5.73;4.20;;;15.30;99.90;;;;;;4967924;28;20224;-84
2023/05/24 00:39:06;;;;;;;5.20;3.83;;;15.00;99.90;;;;;;4958038;28;20611;-84
2023/05/24 00:41:31;;;;;;;4.90;4.50;;;15.30;99.90;;;;;;4951555;29;20215;-84
2023/05/24 00:43:57;;;;;;;4.23;3.83;;;15.00;99.90;;;;;;4960225;29;20224;-84
2023/05/24 00:46:28;;;;;;;4.87;3.93;;;14.90;99.90;;;;;;4953872;28;20249;-84
2023/05/24 00:48:54;;;;;;;5.85;3.75;;;15.40;99.90;;;;;;4971122;28;20270;-84
2023/05/24 00:51:20;;;;;;;6.07;3.65;;;14.80;99.90;;;;;;4954348;28;20182;-84
2023/05/24 00:53:47;;;;;;;6.23;3.70;;;14.80;99.90;;;;;;4954399;29;20256;-84
2023/05/24 00:56:14;;;;;;;4.80;4.03;;;14.70;99.90;;;;;;4954753;28;20495;-84
2023/05/24 00:58:41;;;;;;;5.88;3.60;;;15.30;99.90;;;;;;4954932;29;20185;-84
2023/05/24 01:01:07;;;;;;;4.88;3.80;;;14.80;98.80;;;;;;4952224;29;20220;-84
2023/05/24 01:03:34;;;;;;;4.27;3.50;;;15.10;99.20;;;;;;4952942;29;20186;-84
2023/05/24 01:06:02;;;;;;;4.90;4.20;;;14.60;99.20;;;;;;4954926;29;20472;-84
2023/05/24 01:08:49;;;;;;;7.00;4.00;;;14.70;99.40;;;;;;4957637;29;20201;-82
2023/05/24 01:11:52;;;;;;;4.05;3.58;;;14.50;99.30;;;;;;4943757;29;20196;-84
2023/05/24 01:14:34;;;;;;;7.40;3.75;;;14.60;99.70;;;;;;4950740;29;20191;-84
2023/05/24 01:17:31;;;;;;;5.93;3.80;;;14.70;99.30;;;;;;4971346;28;20207;-84
2023/05/24 01:20:07;;;;;;;4.72;3.15;;;15.00;98.90;;;;;;4954101;28;20189;-84
2023/05/24 01:22:50;;;;;;;6.93;4.00;;;14.80;98.50;;;;;;4953087;28;20201;-84
2023/05/24 01:25:34;;;;;;;4.68;3.65;;;14.60;98.40;;;;;;4951154;29;20196;-84
2023/05/24 01:28:03;;;;;;;5.88;3.90;;;14.70;98.90;;;;;;4950710;28;20669;-84
2023/05/24 01:30:28;;;;;;;5.78;3.58;;;14.80;98.70;;;;;;4973647;28;20752;-84
2023/05/24 01:32:54;;;;;;;5.13;3.97;;;14.80;98.90;;;;;;4952321;29;20212;-84
2023/05/24 01:35:20;;;;;;;7.80;3.90;;;14.80;99.20;;;;;;4951431;29;20480;-84
2023/05/24 01:37:46;;;;;;;4.90;4.03;;;15.00;98.80;;;;;;4950196;29;20197;-83
2023/05/24 01:40:12;;;;;;;4.43;4.03;;;14.70;98.40;;;;;;4954623;28;20523;-84
2023/05/24 01:42:46;;;;;;;4.80;3.67;;;14.70;98.10;;;;;;4949558;28;20704;-84
2023/05/24 01:45:21;;;;;;;6.80;4.20;;;14.90;97.90;;;;;;4943180;29;20176;-84
2023/05/24 01:48:17;;;;;;;7.20;3.55;;;15.10;98.10;;;;;;4950055;28;20255;-84
2023/05/24 01:50:53;;;;;;;8.43;3.80;;;14.60;97.30;;;;;;4944668;28;20619;-84
2023/05/24 01:53:21;;;;;;;8.05;4.07;;;14.70;97.50;;;;;;4946302;29;20196;-84
2023/05/24 01:55:50;;;;;;;5.85;3.90;;;14.40;97.40;;;;;;4948612;29;20235;-84
2023/05/24 01:58:18;;;;;;;4.38;4.00;;;14.50;97.70;;;;;;4948095;28;20256;-84
2023/05/24 02:00:45;;;;;;;7.75;3.80;;;14.40;97.50;;;;;;4948455;29;20192;-84
2023/05/24 02:03:13;;;;;;;5.90;4.32;;;14.50;97.40;;;;;;4946808;29;20200;-84
2023/05/24 02:05:39;;;;;;;4.80;4.30;;;14.90;97.50;;;;;;4948852;29;20185;-82
2023/05/24 02:08:04;;;;;;;4.93;3.77;;;14.80;98.10;;;;;;4949405;29;20192;-84
2023/05/24 02:10:30;;;;;;;7.20;3.50;;;14.90;98.40;;;;;;4949100;29;20605;-82
2023/05/24 02:12:55;;;;;;;4.50;3.67;;;15.00;97.60;;;;;;4966515;29;20225;-84
2023/05/24 02:15:22;;;;;;;4.10;3.60;;;14.50;97.20;;;;;;4951515;28;20254;-84
2023/05/24 02:17:47;;;;;;;5.13;4.60;;;14.60;97.30;;;;;;4948716;29;20192;-84
2023/05/24 02:20:13;;;;;;;6.73;4.43;;;15.00;97.50;;;;;;4949213;28;20193;-82
2023/05/24 02:22:39;;;;;;;4.70;3.63;;;14.80;97.30;;;;;;4951205;29;20205;-83
2023/05/24 02:25:05;;;;;;;5.50;4.32;;;15.00;97.60;;;;;;4952642;28;20205;-83
2023/05/24 02:27:30;;;;;;;7.40;3.90;;;14.40;97.30;;;;;;4974854;28;20185;-83
2023/05/24 02:29:56;;;;;;;8.87;3.87;;;14.30;97.60;;;;;;4951166;29;20527;-83
2023/05/24 02:32:21;;;;;;;6.03;4.00;;;14.40;98.00;;;;;;4945663;29;20235;-83
2023/05/24 02:34:47;;;;;;;5.97;3.93;;;14.00;98.10;;;;;;4959451;29;20197;-83
2023/05/24 02:37:13;;;;;;;7.23;4.63;;;14.00;98.60;;;;;;4966590;28;20236;-83
2023/05/24 02:39:40;;;;;;;5.43;4.22;;;14.00;98.60;;;;;;4949713;28;20192;-83
2023/05/24 02:42:07;;;;;;;7.15;4.25;;;14.30;98.70;;;;;;4942194;29;20201;-83
2023/05/24 02:44:33;;;;;;;5.57;4.35;;;13.80;98.60;;;;;;4938341;29;20185;-84
2023/05/24 02:46:59;;;;;;;6.03;4.17;;;14.50;98.90;;;;;;4937506;29;20294;-84
2023/05/24 02:49:24;;;;;;;7.87;4.57;;;14.20;98.60;;;;;;4950144;29;20534;-83
2023/05/24 02:51:50;;;;;;;13.20;11.13;;;14.70;98.80;;;;;;4945161;29;20224;-83
2023/05/24 02:54:16;;;;;;;10.10;5.20;;;14.40;98.50;;;;;;4947564;29;20194;-83
2023/05/24 02:56:42;;;;;;;4.90;4.40;;;14.10;98.30;;;;;;4943475;29;20567;-83
2023/05/24 02:59:07;;;;;;;5.50;3.80;;;14.40;98.20;;;;;;4964359;29;20216;-84
2023/05/24 03:01:33;;;;;;;6.00;4.00;;;14.40;98.20;;;;;;4947193;28;20288;-84
2023/05/24 03:03:58;;;;;;;11.93;4.87;;;14.20;98.20;;;;;;4950777;29;20252;-83
2023/05/24 03:06:24;;;;;;;5.57;4.30;;;15.80;99.20;;;;;;4957471;28;20280;-83
2023/05/24 03:08:49;;;;;;;8.70;4.60;;;13.90;98.40;;;;;;4943041;29;20192;-83
2023/05/24 03:11:15;;;;;;;6.00;4.60;;;13.90;98.50;;;;;;4942624;29;20285;-83
2023/05/24 03:13:41;;;;;;;6.60;4.90;;;14.10;99.30;;;;;;4959209;28;20274;-83
2023/05/24 03:16:07;;;;;;;7.03;5.37;;;14.30;99.00;;;;;;4938940;29;20468;-83
2023/05/24 03:18:32;;;;;;;8.17;4.60;;;13.80;98.90;;;;;;4940562;29;20289;-83
2023/05/24 03:20:58;;;;;;;5.17;4.43;;;13.80;98.80;;;;;;4946912;29;20449;-83
2023/05/24 03:23:23;;;;;;;7.80;5.00;;;14.10;99.20;;;;;;4939527;29;20215;-83
2023/05/24 03:25:49;;;;;;;8.83;4.50;;;14.00;99.30;;;;;;4958490;28;20208;-83
2023/05/24 03:28:14;;;;;;;9.43;4.20;;;14.00;99.00;;;;;;4942145;28;20212;-83
2023/05/24 03:30:40;;;;;;;6.70;4.20;;;13.80;99.20;;;;;;4942421;29;20284;-82
2023/05/24 03:33:05;;;;;;;6.30;5.00;;;13.70;99.10;;;;;;4948920;29;20228;-82
2023/05/24 03:35:31;;;;;;;11.53;4.43;;;13.90;99.60;;;;;;4961959;28;20724;-82
2023/05/24 03:37:57;;;;;;;6.40;5.07;;;13.50;99.40;;;;;;4943642;29;20192;-82
2023/05/24 03:40:24;;;;;;;8.53;4.70;;;13.60;99.60;;;;;;4940794;29;20181;-82
2023/05/24 03:42:50;;;;;;;8.50;4.88;;;13.70;99.20;;;;;;4944862;29;20205;-82
2023/05/24 03:45:15;;;;;;;5.60;4.13;;;13.60;99.20;;;;;;4951846;29;20204;-83
2023/05/24 03:47:41;;;;;;;7.27;4.50;;;13.70;99.10;;;;;;4950928;28;20934;-83
2023/05/24 03:50:07;;;;;;;5.10;4.30;;;14.00;99.40;;;;;;4949879;29;20195;-82
2023/05/24 03:52:32;;;;;;;8.90;4.97;;;13.90;99.40;;;;;;4945855;28;20201;-82
2023/05/24 03:54:58;;;;;;;7.30;4.43;;;13.70;99.10;;;;;;4945836;29;20462;-82
2023/05/24 03:57:23;;;;;;;7.80;4.30;;;13.60;99.00;;;;;;4945664;29;20201;-82
2023/05/24 03:59:49;;;;;;;7.00;4.03;;;13.30;98.80;;;;;;4944962;29;20228;-83
2023/05/24 04:02:14;;;;;;;4.93;3.80;;;13.90;99.30;;;;;;4945908;29;20204;-83
2023/05/24 04:04:40;;;;;;;11.03;4.43;;;14.10;99.00;;;;;;4946734;28;20652;-82
2023/05/24 04:07:06;;;;;;;9.23;4.13;;;14.00;99.00;;;;;;4943555;29;20661;-82
2023/05/24 04:09:32;;;;;;;5.60;4.47;;;13.80;99.10;;;;;;4944276;28;20195;-83
2023/05/24 04:11:57;;;;;;;6.90;4.50;;;13.40;98.90;;;;;;4940184;29;20213;-83
2023/05/24 04:14:23;;;;;;;8.27;5.27;;;13.90;99.40;;;;;;4941494;29;20197;-84
2023/05/24 04:16:48;;;;;;;7.30;4.50;;;13.50;99.20;;;;;;4941390;29;20197;-84
2023/05/24 04:19:14;;;;;;;8.50;4.83;;;13.40;99.40;;;;;;4938876;29;20169;-83
2023/05/24 04:21:39;;;;;;;5.60;4.37;;;13.50;99.90;;;;;;4941521;29;20209;-83
2023/05/24 04:24:05;;;;;;;6.53;4.30;;;13.40;99.90;;;;;;4941461;29;20197;-84
2023/05/24 04:26:32;;;;;;;8.20;4.67;;;14.30;99.90;;;;;;4940752;29;20275;-84
2023/05/24 04:28:58;;;;;;;9.32;4.70;;;13.50;99.70;;;;;;4941712;29;20243;-83
2023/05/24 04:31:25;;;;;;;7.70;4.53;;;13.70;99.80;;;;;;4936307;28;20621;-84
2023/05/24 04:33:51;;;;;;;8.38;4.35;;;13.30;99.40;;;;;;4939993;29;20653;-84
2023/05/24 04:36:16;;;;;;;9.18;4.88;;;13.90;99.70;;;;;;4954448;28;20209;-83
2023/05/24 04:38:44;;;;;;;7.23;4.60;;;13.80;99.90;;;;;;4957162;28;20538;-84
2023/05/24 04:41:10;;;;;;;7.90;4.93;;;13.40;99.50;;;;;;4943356;29;20185;-83
2023/05/24 04:43:35;;;;;;;6.50;4.50;;;13.30;99.70;;;;;;4943240;29;20618;-83
2023/05/24 04:46:01;;;;;;;8.03;4.80;;;13.40;99.90;;;;;;4944605;29;20204;-83
2023/05/24 04:48:27;;;;;;;6.60;4.60;;;13.40;99.60;;;;;;4946103;29;20196;-83
2023/05/24 04:50:54;;;;;;;6.60;4.67;;;13.80;99.90;;;;;;4944564;28;20184;-82
2023/05/24 04:53:20;;;;;;;9.57;5.07;;;13.40;99.80;;;;;;4943234;29;20216;-82
2023/05/24 04:55:47;;;;;;;9.65;4.63;;;13.50;99.80;;;;;;4951580;29;20685;-79
2023/05/24 04:58:13;;;;;;;7.13;4.18;;;13.30;99.70;;;;;;4952828;29;20602;-82
2023/05/24 05:00:38;;;;;;;7.75;4.90;;;13.60;99.90;;;;;;4943638;29;20188;-82
2023/05/24 05:03:04;;;;;;;6.63;4.50;;;13.50;99.90;;;;;;4946117;29;20257;-82
2023/05/24 05:05:30;;;;;;;5.70;4.00;;;13.50;99.70;;;;;;4959192;28;20185;-82
2023/05/24 05:07:55;;;;;;;6.93;4.73;;;13.30;99.70;;;;;;4942216;29;20192;-82
2023/05/24 05:10:21;;;;;;;10.37;4.80;;;13.20;99.90;;;;;;4959939;28;20180;-82
2023/05/24 05:12:47;;;;;;;7.57;5.20;;;13.80;99.90;;;;;;4943187;29;20464;-82
2023/05/24 05:15:13;;;;;;;11.70;6.23;;;13.60;99.90;;;;;;4942037;29;20448;-82
2023/05/24 05:17:38;;;;;;;9.50;5.43;;;13.60;99.90;;;;;;4958877;29;20531;-82
2023/05/24 05:20:04;;;;;;;6.90;5.17;;;14.00;99.90;;;;;;4940758;29;20185;-82
2023/05/24 05:22:30;;;;;;;8.13;4.50;;;13.50;99.90;;;;;;4941000;28;20251;-82
2023/05/24 05:24:56;;;;;;;7.90;5.17;;;13.90;99.90;;;;;;4942966;29;20284;-82
2023/05/24 05:27:21;;;;;;;7.93;5.50;;;13.40;99.70;;;;;;4944684;29;20253;-82
2023/05/24 05:29:47;;;;;;;12.83;5.67;;;13.60;99.90;;;;;;4942513;29;20193;-82
2023/05/24 05:32:12;;;;;;;7.70;4.90;;;14.20;99.90;;;;;;4940791;29;20224;-84
2023/05/24 05:34:38;;;;;;;13.40;5.20;;;13.80;99.40;;;;;;4947719;29;20630;-84
2023/05/24 05:37:03;;;;;;;10.40;6.23;;;14.10;99.90;;;;;;4945217;29;20626;-84
2023/05/24 05:39:30;;;;;;;8.10;4.47;;;13.70;99.60;;;;;;4950071;29;20177;-84
2023/05/24 05:41:56;;;;;;;7.28;4.60;;;13.60;99.50;;;;;;4950543;28;20469;-84
2023/05/24 05:44:22;;;;;;;10.25;5.38;;;13.60;99.60;;;;;;4964080;28;20240;-84
2023/05/24 05:46:48;;;;;;;5.43;4.77;;;14.80;99.60;;;;;;4962000;28;20227;-84
2023/05/24 05:49:14;;;;;;;9.43;4.80;;;13.70;99.10;;;;;;4944133;29;20181;-84
2023/05/24 05:51:40;;;;;;;6.88;5.07;;;13.50;98.80;;;;;;4946227;29;20260;-84
2023/05/24 05:54:13;;;;;;;9.10;4.70;;;14.20;99.50;;;;;;4949433;29;20189;-84
2023/05/24 05:56:44;;;;;;;9.00;5.25;;;13.90;99.30;;;;;;4944235;28;20499;-84
2023/05/24 05:59:10;;;;;;;6.50;4.50;;;13.90;99.40;;;;;;4952128;29;20218;-84
2023/05/24 06:01:35;;;;;;;6.43;4.70;;;13.50;99.50;;;;;;4947899;29;20205;-83
2023/05/24 06:04:01;;;;;;;8.43;4.80;;;13.80;99.20;;;;;;4966687;29;20192;-83
2023/05/24 06:06:26;;;;;;;9.80;4.40;;;13.70;99.20;;;;;;4952496;29;20185;-83
2023/05/24 06:08:52;;;;;;;9.80;5.70;;;13.80;99.10;;;;;;4974571;28;20253;-84
2023/05/24 06:11:17;;;;;;;7.40;4.20;;;14.00;98.30;;;;;;4951704;28;20215;-84
2023/05/24 06:13:43;;;;;;;7.37;5.17;;;13.80;98.50;;;;;;4951036;29;20220;-82
2023/05/24 06:16:09;;;;;;;6.60;4.30;;;14.30;99.60;;;;;;4945982;29;20221;-82
2023/05/24 06:18:35;;;;;;;12.10;6.20;;;14.00;98.70;;;;;;4959692;28;20189;-84
2023/05/24 06:21:01;;;;;;;8.73;4.97;;;14.50;98.90;;;;;;4944082;28;20821;-82
2023/05/24 06:23:26;;;;;;;6.93;5.00;;;14.50;98.50;;;;;;4940902;29;20291;-82
2023/05/24 06:25:52;;;;;;;9.53;5.30;;;14.20;98.10;;;;;;4952637;28;20674;-83
2023/05/24 06:28:17;;;;;;;8.27;4.77;;;14.20;98.50;;;;;;4951005;29;20243;-82
2023/05/24 06:30:43;;;;;;;5.93;4.50;;;14.60;98.50;;;;;;4949402;29;20283;-84
2023/05/24 06:33:09;;;;;;;8.23;4.53;;;14.30;98.00;;;;;;4947336;29;20220;-83
2023/05/24 06:35:34;;;;;;;6.20;4.67;;;14.40;97.70;;;;;;4944391;29;20212;-84
2023/05/24 06:38:00;;;;;;;6.43;4.70;;;14.50;97.80;;;;;;4958321;28;20472;-84
2023/05/24 06:40:25;;;;;;;9.87;4.47;;;14.50;98.00;;;;;;4946415;29;20280;-84
2023/05/24 06:42:51;;;;;;;10.07;7.27;;;14.70;97.50;;;;;;4945749;29;20215;-84
2023/05/24 06:45:16;;;;;;;10.13;4.87;;;14.90;97.50;;;;;;4945824;29;20204;-85
2023/05/24 06:47:42;;;;;;;5.67;4.47;;;15.10;97.10;;;;;;4946065;29;20185;-84
2023/05/24 06:50:08;;;;;;;5.33;4.67;;;14.60;97.40;;;;;;4948768;29;20252;-84
2023/05/24 06:52:33;;;;;;;7.90;4.67;;;14.90;97.10;;;;;;4951062;29;20196;-84
2023/05/24 06:54:59;;;;;;;8.97;5.23;;;14.90;96.70;;;;;;4966779;28;20431;-84
2023/05/24 06:57:25;;;;;;;8.00;4.60;;;14.40;96.40;;;;;;4959702;28;20232;-83
2023/05/24 06:59:51;;;;;;;6.38;4.60;;;14.60;96.60;;;;;;4955012;29;20190;-83
2023/05/24 07:02:17;;;;;;;8.70;5.10;;;14.80;96.60;;;;;;4962899;29;20241;-83
2023/05/24 07:04:42;;;;;;;6.37;4.27;;;14.90;97.10;;;;;;4949444;29;20302;-84
2023/05/24 07:07:11;;;;;;;9.80;4.30;;;15.00;97.30;;;;;;4947317;29;20545;-84
2023/05/24 07:09:38;;;;;;;8.48;4.60;;;14.40;97.30;;;;;;4945773;28;20200;-84
2023/05/24 07:12:03;;;;;;;9.48;5.32;;;14.50;97.40;;;;;;4948114;29;20347;-84
2023/05/24 07:14:29;;;;;;;8.70;5.57;;;14.30;97.70;;;;;;4947689;28;20208;-84
2023/05/24 07:16:57;;;;;;;8.77;5.67;;;14.30;97.80;;;;;;4951499;29;20476;-83
2023/05/24 07:19:26;;;;;;;8.63;4.95;;;14.30;98.00;;;;;;4968606;28;20177;-84
2023/05/24 07:21:52;;;;;;;9.32;5.30;;;14.90;98.00;;;;;;4945814;29;20216;-84
2023/05/24 07:24:17;;;;;;;8.48;4.97;;;14.70;97.70;;;;;;4965378;28;20187;-84
2023/05/24 07:26:43;;;;;;;8.10;4.97;;;14.40;97.30;;;;;;4952199;29;20205;-84
2023/05/24 07:29:09;;;;;;;11.40;5.50;;;14.70;97.80;;;;;;4948481;29;20713;-84
2023/05/24 07:31:35;;;;;;;9.57;5.80;;;14.30;98.00;;;;;;4945766;29;20297;-84
2023/05/24 07:34:01;;;;;;;9.07;4.45;;;14.20;98.40;;;;;;4947793;29;20207;-83
2023/05/24 07:36:31;;;;;;;8.60;4.33;;;14.10;98.00;;;;;;4947859;29;20769;-84
2023/05/24 07:38:56;;;;;;;8.55;4.80;;;14.00;98.10;;;;;;4947893;29;20189;-84
2023/05/24 07:41:28;;;;;;;8.60;4.40;;;14.10;97.90;;;;;;4949668;29;20263;-84
2023/05/24 07:43:54;;;;;;;5.72;5.13;;;14.10;98.20;;;;;;4949264;29;20189;-84
2023/05/24 07:46:20;;;;;;;11.80;5.93;;;14.10;98.00;;;;;;4948057;29;20184;-84
2023/05/24 07:48:46;;;;;;;8.27;4.45;;;14.30;97.90;;;;;;4949098;29;20200;-84
2023/05/24 07:51:11;;;;;;;10.30;5.13;;;14.30;97.60;;;;;;4947762;29;20200;-82
2023/05/24 07:53:37;;;;;;;12.03;5.37;;;14.80;97.20;;;;;;4948554;29;20268;-84
2023/05/24 07:56:02;;;;;;;15.97;5.70;;;14.40;97.60;;;;;;4950468;29;20205;-83
2023/05/24 07:58:28;;;;;;;6.57;4.80;;;14.50;97.70;;;;;;4947157;29;20240;-83
2023/05/24 08:00:53;;;;;;;9.00;5.30;;;13.90;97.50;;;;;;4944010;29;20651;-83
2023/05/24 08:03:19;;;;;;;9.00;5.30;;;14.10;98.00;;;;;;4948559;29;20197;-83
2023/05/24 08:05:44;;;;;;;10.60;5.90;;;13.90;98.20;;;;;;4960578;28;20201;-83
2023/05/24 08:08:10;;;;;;;9.60;5.57;;;13.90;98.00;;;;;;4943018;29;20257;-83
2023/05/24 08:10:35;;;;;;;9.33;4.77;;;14.70;97.90;;;;;;4946092;29;20199;-83
2023/05/24 08:13:02;;;;;;;10.17;5.43;;;14.50;96.80;;;;;;4946016;28;20215;-83
2023/05/24 08:15:27;;;;;;;7.90;5.45;;;15.10;96.70;;;;;;4962232;28;20197;-83
2023/05/24 08:17:53;;;;;;;9.13;4.97;;;14.90;97.10;;;;;;4946866;28;20288;-83
2023/05/24 08:20:19;;;;;;;8.07;4.90;;;15.50;96.50;;;;;;4947135;29;20199;-83
2023/05/24 08:22:47;;;;;;;10.32;4.60;;;15.30;96.20;;;;;;4943899;28;20214;-83
2023/05/24 08:25:14;;;;;;;10.57;4.85;;;14.90;95.50;;;;;;4946270;29;20213;-83
2023/05/24 08:27:39;;;;;;;6.00;4.60;;;15.30;95.90;;;;;;4951557;28;20205;-83
2023/05/24 08:30:07;;;;;;;7.33;4.47;;;14.90;95.80;;;;;;4949039;29;20188;-83
2023/05/24 08:32:33;;;;;;;9.55;5.07;;;15.00;95.90;;;;;;4948091;29;20205;-83
2023/05/24 08:34:58;;;;;;;15.93;4.67;;;15.20;96.40;;;;;;4952489;29;20195;-82
2023/05/24 08:37:24;;;;;;;10.07;5.40;;;14.80;95.90;;;;;;4955693;29;20464;-82
2023/05/24 08:39:49;;;;;;;7.43;4.90;;;14.90;96.10;;;;;;4953502;28;20253;-82
2023/05/24 08:42:15;;;;;;;8.67;5.07;;;14.70;96.70;;;;;;4951105;29;20201;-82
2023/05/24 08:45:03;;;;;;;8.73;6.00;;;14.50;96.70;;;;;;4948371;29;20244;-83
2023/05/24 08:47:29;;;;;;;6.25;4.65;;;15.20;96.60;;;;;;4948382;29;20288;-82
2023/05/24 08:49:56;;;;;;;7.20;5.35;;;14.90;96.30;;;;;;4947664;28;20559;-84
2023/05/24 08:52:22;;;;;;;8.65;5.60;;;14.70;96.50;;;;;;4964949;28;20240;-84
2023/05/24 08:54:48;;;;;;;12.40;5.15;;;14.90;96.80;;;;;;4946703;29;20189;-84
2023/05/24 08:57:15;;;;;;;9.77;5.00;;;15.40;96.20;;;;;;4948161;29;20267;-83
2023/05/24 08:59:41;;;;;;;7.65;5.30;;;14.80;95.50;;;;;;4949261;29;20209;-84
2023/05/24 09:02:10;;;;;;;9.27;5.07;;;15.10;95.70;;;;;;4951654;29;20786;-82
2023/05/24 09:04:38;;;;;;;6.88;4.90;;;15.40;95.30;;;;;;4949582;29;20464;-82
2023/05/24 09:07:05;;;;;;;8.93;4.90;;;14.90;95.70;;;;;;4943521;29;20185;-83
2023/05/24 09:09:33;;;;;;;10.82;4.75;;;15.10;95.40;;;;;;4946194;29;20550;-82
2023/05/24 09:12:03;;;;;;;10.52;5.65;;;15.60;95.60;;;;;;4948303;29;20211;-85
2023/05/24 09:14:29;;;;;;;8.90;5.20;;;15.30;95.40;;;;;;4946469;28;20181;-82
2023/05/24 09:16:55;;;;;;;6.57;4.93;;;15.60;95.40;;;;;;4959101;28;20307;-82
2023/05/24 09:19:21;;;;;;;8.90;5.57;;;15.00;94.90;;;;;;4946701;28;20568;-82
2023/05/24 09:21:48;;;;;;;7.55;5.15;;;15.00;95.20;;;;;;4943891;28;20206;-82
2023/05/24 09:24:15;;;;;;;11.57;4.60;;;15.30;95.40;;;;;;4944809;28;20212;-83
2023/05/24 09:26:41;;;;;;;9.70;5.15;;;15.40;95.60;;;;;;4943017;29;20191;-82
2023/05/24 09:29:08;;;;;;;9.70;6.40;;;15.10;95.50;;;;;;4945626;28;20245;-82
2023/05/24 09:31:34;;;;;;;8.40;5.47;;;15.00;94.90;;;;;;4940943;29;20212;-82
2023/05/24 09:34:01;;;;;;;13.43;5.05;;;15.10;95.00;;;;;;4947996;29;20610;-83
2023/05/24 09:36:28;;;;;;;9.75;5.70;;;15.00;95.70;;;;;;4939727;29;20418;-83
2023/05/24 09:39:17;;;;;;;10.45;5.82;;;15.00;96.10;;;;;;4958798;29;20181;-83
2023/05/24 09:41:43;;;;;;;13.63;5.85;;;15.60;95.70;;;;;;4947910;29;20209;-83
2023/05/24 09:44:12;;;;;;;9.55;5.50;;;15.50;95.20;;;;;;4950077;29;20192;-83
2023/05/24 09:46:37;;;;;;;10.95;5.97;;;15.20;94.70;;;;;;4951741;28;20204;-83
2023/05/24 09:49:05;;;;;;;10.93;5.23;;;15.70;95.10;;;;;;4960489;29;20441;-83
2023/05/24 09:51:32;;;;;;;13.00;5.65;;;15.40;94.90;;;;;;4960302;28;20196;-84
2023/05/24 09:54:00;;;;;;;6.43;4.65;;;15.70;94.40;;;;;;4971368;28;20199;-84
2023/05/24 09:56:26;;;;;;;12.40;6.32;;;15.50;93.70;;;;;;4948233;29;20274;-84
2023/05/24 09:58:53;;;;;;;10.00;5.40;;;15.60;93.80;;;;;;4944193;29;20224;-83
2023/05/24 10:01:23;;;;;;;9.20;5.20;;;15.30;93.60;;;;;;4950492;29;20263;-83
2023/05/24 10:03:57;;;;;;;14.68;8.68;;;15.60;94.10;;;;;;4951768;29;20216;-83
2023/05/24 10:06:23;;;;;;;10.20;5.05;;;15.00;94.10;;;;;;4951500;29;20189;-83
2023/05/24 10:08:53;;;;;;;8.33;5.30;;;15.20;95.00;;;;;;4951014;29;20195;-83
2023/05/24 10:11:19;;;;;;;8.35;5.78;;;15.40;95.00;;;;;;4974256;28;20191;-83
2023/05/24 10:13:48;;;;;;;9.70;5.72;;;15.30;95.00;;;;;;4955079;29;20197;-83
2023/05/24 10:16:17;;;;;;;8.43;5.57;;;15.40;94.80;;;;;;4966572;29;20192;-83
2023/05/24 10:18:43;;;;;;;12.18;6.13;;;15.50;95.50;;;;;;4951979;29;20264;-83
2023/05/24 10:21:09;;;;;;;9.30;5.20;;;15.30;94.10;;;;;;4947618;28;20185;-83
2023/05/24 10:23:42;;;;;;;14.15;8.85;;;15.30;94.40;;;;;;4965277;29;20273;-82
2023/05/24 10:26:10;;;;;;;7.53;6.05;;;15.10;94.80;;;;;;4946471;29;20196;-83
2023/05/24 10:28:44;;;;;;;10.65;5.20;;;15.20;95.00;;;;;;4950568;29;20181;-83
2023/05/24 10:31:14;;;;;;;9.05;5.78;;;14.90;94.90;;;;;;4965146;28;20195;-84
2023/05/24 10:33:43;;;;;;;8.52;5.15;;;15.30;95.50;;;;;;4952519;29;20173;-83
2023/05/24 10:36:10;;;;;;;7.15;5.28;;;15.10;95.10;;;;;;4956645;29;20205;-83
2023/05/24 10:38:39;;;;;;;7.60;5.82;;;15.40;94.80;;;;;;4952214;29;20181;-84
2023/05/24 10:41:09;;;;;;;8.05;6.32;;;15.30;95.30;;;;;;4951137;29;20227;-83
2023/05/24 10:43:37;;;;;;;8.63;5.13;;;15.10;95.20;;;;;;4952223;29;20516;-83
2023/05/24 10:46:04;;;;;;;9.27;5.03;;;15.10;94.30;;;;;;4949969;29;20598;-83
2023/05/24 10:48:35;;;;;;;12.98;5.32;;;15.20;94.70;;;;;;4954340;29;20181;-84
2023/05/24 10:51:21;;;;;;;11.35;5.07;;;15.10;94.30;;;;;;4953017;29;20186;-84
2023/05/24 10:53:48;;;;;;;8.73;5.05;;;15.00;94.20;;;;;;4948815;29;20195;-84
2023/05/24 10:56:14;;;;;;;7.15;5.20;;;15.10;94.70;;;;;;4947556;29;20201;-84
2023/05/24 10:58:57;;;;;;;6.60;4.83;;;15.20;93.90;;;;;;4969906;29;20204;-84
2023/05/24 11:01:26;;;;;;;9.27;5.93;;;15.00;93.80;;;;;;4944702;29;20539;-82
2023/05/24 11:03:52;;;;;;;9.88;6.50;;;15.00;94.10;;;;;;4961147;28;20196;-84
2023/05/24 11:06:18;;;;;;;11.57;6.10;;;14.90;94.90;;;;;;4947186;28;20196;-84
2023/05/24 11:08:45;;;;;;;10.50;6.72;;;14.70;94.50;;;;;;4949884;29;20196;-84
2023/05/24 11:11:12;;;;;;;11.13;8.23;;;14.90;94.70;;;;;;4945437;29;20184;-83
2023/05/24 11:13:39;;;;;;;8.30;5.20;;;15.20;93.20;;;;;;4947413;29;20555;-83
2023/05/24 11:16:06;;;;;;;8.80;5.80;;;15.50;92.50;;;;;;4943206;29;20221;-82
2023/05/24 11:18:37;;;;;;;8.10;5.20;;;15.80;92.90;;;;;;4944125;29;20180;-83
2023/05/24 11:21:03;;;;;;;10.70;5.85;;;15.40;93.30;;;;;;4943524;28;20600;-83
2023/05/24 11:23:30;;;;;;;9.00;4.93;;;15.20;93.20;;;;;;4947235;29;20196;-83
2023/05/24 11:25:56;;;;;;;9.05;5.63;;;15.40;93.10;;;;;;4946785;28;20201;-83
2023/05/24 11:28:23;;;;;;;11.05;5.65;;;15.50;92.00;;;;;;4947837;29;20196;-82
2023/05/24 11:30:49;;;;;;;9.80;5.82;;;15.80;92.20;;;;;;4946197;28;20221;-84
2023/05/24 11:33:21;;;;;;;7.88;5.00;;;16.10;92.00;;;;;;4951062;29;20267;-84
2023/05/24 11:35:51;;;;;;;9.68;5.85;;;16.40;91.40;;;;;;4951405;28;20200;-83
2023/05/24 11:38:19;;;;;;;7.18;5.53;;;16.20;90.70;;;;;;4932589;29;20661;-83
2023/05/24 11:40:47;;;;;;;7.80;5.22;;;17.20;90.50;;;;;;4948193;29;20220;-84
2023/05/24 11:43:15;;;;;;;11.75;5.47;;;17.10;88.90;;;;;;4950261;29;20228;-84
2023/05/24 11:45:43;;;;;;;8.32;5.65;;;16.90;87.30;;;;;;4958953;28;20241;-84
2023/05/24 11:48:10;;;;;;;7.05;4.72;;;17.10;88.20;;;;;;4943836;29;20253;-81
2023/05/24 11:50:38;;;;;;;13.13;5.20;;;17.40;86.50;;;;;;4949171;29;20201;-84
2023/05/24 11:53:04;;;;;;;8.25;5.03;;;17.70;85.30;;;;;;4947017;28;20264;-82
2023/05/24 11:55:31;;;;;;;6.20;4.90;;;18.10;84.70;;;;;;4948627;29;20192;-82
2023/05/24 11:58:01;;;;;;;12.95;5.30;;;17.80;82.10;;;;;;4948394;29;20200;-84
2023/05/24 12:00:26;;;;;;;8.93;5.53;;;17.80;81.50;;;;;;4952985;29;20203;-83
2023/05/24 12:02:55;;;;;;;10.87;5.40;;;17.90;82.50;;;;;;4950172;29;20224;-84
2023/05/24 12:05:21;;;;;;;5.00;4.50;;;17.80;82.20;;;;;;4950556;29;20449;-83
2023/05/24 12:07:49;;;;;;;9.13;5.20;;;17.60;82.10;;;;;;4947321;29;20681;-83
2023/05/24 12:10:15;;;;;;;7.30;3.88;;;17.60;79.40;;;;;;4947669;29;20560;-83
2023/05/24 12:12:44;;;;;;;5.00;4.50;;;17.60;76.00;;;;;;4948865;29;20288;-83
2023/05/24 12:15:10;;;;;;;9.88;4.30;;;17.70;77.40;;;;;;4941562;29;20195;-83
2023/05/24 12:17:36;;;;;;;6.97;4.00;;;17.10;76.00;;;;;;4947142;29;20216;-83
2023/05/24 12:20:04;;;;;;;4.40;3.77;;;17.10;73.60;;;;;;4949376;29;20247;-83
2023/05/24 12:22:30;;;;;;;7.38;4.40;;;17.60;77.20;;;;;;4944860;29;20209;-83
2023/05/24 12:24:56;;;;;;;6.90;4.30;;;17.20;78.70;;;;;;4947301;29;20215;-83
2023/05/24 12:27:26;;;;;;;7.80;5.05;;;17.30;79.90;;;;;;4964172;29;20181;-84
2023/05/24 12:29:52;;;;;;;6.38;4.60;;;17.50;78.90;;;;;;4959080;28;20189;-83
2023/05/24 12:32:17;;;;;;;6.80;4.23;;;17.40;78.70;;;;;;4948916;29;20231;-83
2023/05/24 12:34:43;;;;;;;6.90;5.03;;;17.60;78.20;;;;;;4964115;28;20203;-83
2023/05/24 12:37:11;;;;;;;8.77;4.60;;;18.20;76.60;;;;;;4964361;28;20218;-84
2023/05/24 12:39:37;;;;;;;8.23;4.45;;;17.90;75.90;;;;;;4950608;29;20248;-83
2023/05/24 12:42:03;;;;;;;6.70;5.20;;;18.40;76.10;;;;;;4948145;29;20197;-82
2023/05/24 12:44:38;;;;;;;7.30;4.27;;;17.90;75.50;;;;;;4948594;29;20184;-83